createdAt,value
2022-08-25T00:01:55.988Z,3.28
2022-08-25T00:04:24.917Z,2.78
2022-08-25T00:06:53.480Z,3.30
2022-08-25T00:09:25.526Z,2.58
2022-08-25T00:11:52.921Z,2.97
2022-08-25T00:14:26.268Z,2.72
2022-08-25T00:16:56.159Z,2.45
2022-08-25T00:19:28.443Z,3.60
2022-08-25T00:21:59.027Z,3.05
2022-08-25T00:24:25.792Z,3.45
2022-08-25T00:26:54.989Z,2.78
2022-08-25T00:29:22.781Z,4.35
2022-08-25T00:31:49.613Z,3.10
2022-08-25T00:34:20.911Z,5.13
2022-08-25T00:36:47.708Z,4.45
2022-08-25T00:39:14.511Z,3.53
2022-08-25T00:41:43.452Z,2.83
2022-08-25T00:44:14.020Z,3.72
2022-08-25T00:46:44.170Z,3.30
2022-08-25T00:49:39.102Z,4.20
2022-08-25T00:52:16.414Z,4.43
2022-08-25T00:54:55.651Z,4.38
2022-08-25T00:57:34.678Z,4.50
2022-08-25T01:00:05.197Z,4.03
2022-08-25T01:02:32.038Z,4.13
2022-08-25T01:04:59.285Z,3.35
2022-08-25T01:07:26.051Z,3.92
2022-08-25T01:09:53.435Z,3.65
2022-08-25T01:12:20.564Z,3.17
2022-08-25T01:14:48.591Z,3.60
2022-08-25T01:17:15.835Z,3.47
2022-08-25T01:19:42.795Z,2.75
2022-08-25T01:22:11.131Z,3.70
2022-08-25T01:24:46.509Z,3.65
2022-08-25T01:27:14.021Z,3.70
2022-08-25T01:29:41.055Z,3.30
2022-08-25T01:32:12.002Z,4.35
2022-08-25T01:34:41.708Z,3.60
2022-08-25T01:37:13.430Z,3.55
2022-08-25T01:39:42.076Z,3.83
2022-08-25T01:42:25.147Z,3.15
2022-08-25T01:44:51.889Z,4.82
2022-08-25T01:47:18.925Z,4.00
2022-08-25T01:49:46.038Z,4.40
2022-08-25T01:52:28.463Z,4.50
2022-08-25T01:54:55.201Z,4.70
2022-08-25T01:57:22.359Z,4.47
2022-08-25T01:59:49.384Z,5.25
2022-08-25T02:02:18.320Z,5.15
2022-08-25T02:04:45.362Z,4.40
2022-08-25T02:07:12.426Z,4.00
2022-08-25T02:09:39.719Z,3.47
2022-08-25T02:12:06.895Z,4.20
2022-08-25T02:14:35.586Z,3.22
2022-08-25T02:17:02.550Z,4.15
2022-08-25T02:19:30.959Z,3.55
2022-08-25T02:21:59.240Z,5.05
2022-08-25T02:24:26.012Z,3.75
2022-08-25T02:26:52.723Z,5.22
2022-08-25T02:29:19.514Z,4.55
2022-08-25T02:31:46.935Z,4.47
2022-08-25T02:34:15.144Z,4.65
2022-08-25T02:36:43.305Z,4.00
2022-08-25T02:39:11.183Z,3.90
2022-08-25T02:41:38.887Z,4.93
2022-08-25T02:44:07.609Z,3.90
2022-08-25T02:46:34.962Z,4.32
2022-08-25T02:49:02.936Z,5.47
2022-08-25T02:51:30.124Z,5.30
2022-08-25T02:53:59.052Z,4.90
2022-08-25T02:56:26.139Z,5.75
2022-08-25T02:58:52.936Z,4.75
2022-08-25T03:01:19.828Z,4.93
2022-08-25T03:03:50.642Z,5.00
2022-08-25T03:06:20.596Z,3.50
2022-08-25T03:08:47.370Z,5.20
2022-08-25T03:11:14.143Z,5.03
2022-08-25T03:13:41.569Z,4.05
2022-08-25T03:16:11.109Z,3.22
2022-08-25T03:18:39.582Z,4.00
2022-08-25T03:21:07.711Z,3.63
2022-08-25T03:23:34.804Z,3.63
2022-08-25T03:26:19.975Z,4.95
2022-08-25T03:28:46.824Z,5.28
2022-08-25T03:31:13.683Z,5.68
2022-08-25T03:33:40.638Z,4.68
2022-08-25T03:36:09.008Z,5.47
2022-08-25T03:38:38.311Z,5.32
2022-08-25T03:41:21.404Z,5.00
2022-08-25T03:43:48.972Z,4.18
2022-08-25T03:46:22.247Z,3.40
2022-08-25T03:48:49.232Z,3.80
2022-08-25T03:51:28.815Z,5.70
2022-08-25T03:53:56.231Z,4.57
2022-08-25T03:56:22.987Z,5.40
2022-08-25T03:58:51.309Z,5.88
2022-08-25T04:01:18.371Z,5.00
2022-08-25T04:03:45.582Z,4.30
2022-08-25T04:06:12.589Z,5.45
2022-08-25T04:08:39.540Z,5.97
2022-08-25T04:11:13.917Z,5.40
2022-08-25T04:13:42.315Z,4.10
2022-08-25T04:16:14.266Z,4.60
2022-08-25T04:18:43.337Z,5.40
2022-08-25T04:21:11.904Z,3.97
2022-08-25T04:23:41.400Z,3.53
2022-08-25T04:26:20.523Z,3.72
2022-08-25T04:28:47.808Z,4.90
2022-08-25T04:31:16.043Z,5.30
2022-08-25T04:33:42.866Z,4.18
2022-08-25T04:36:14.259Z,4.30
2022-08-25T04:38:42.397Z,3.78
2022-08-25T04:41:10.947Z,3.80
2022-08-25T04:43:39.599Z,5.10
2022-08-25T04:46:08.918Z,5.47
2022-08-25T04:48:36.125Z,5.20
2022-08-25T04:51:07.569Z,5.95
2022-08-25T04:53:34.955Z,5.95
2022-08-25T04:56:04.207Z,6.05
2022-08-25T04:58:31.040Z,6.00
2022-08-25T05:01:05.894Z,5.50
2022-08-25T05:03:32.911Z,4.88
2022-08-25T05:05:59.795Z,4.22
2022-08-25T05:08:26.608Z,4.93
2022-08-25T05:10:54.531Z,5.90
2022-08-25T05:13:22.855Z,5.70
2022-08-25T05:15:57.622Z,6.13
2022-08-25T05:18:29.060Z,4.82
2022-08-25T05:20:56.955Z,4.80
2022-08-25T05:23:25.178Z,3.92
2022-08-25T05:25:52.740Z,3.55
2022-08-25T05:28:21.357Z,3.88
2022-08-25T05:30:49.404Z,3.67
2022-08-25T05:33:16.944Z,3.45
2022-08-25T05:35:43.959Z,4.05
2022-08-25T05:38:15.307Z,4.65
2022-08-25T05:43:09.133Z,5.38
2022-08-25T05:45:35.965Z,6.53
2022-08-25T05:48:03.424Z,4.40
2022-08-25T05:50:30.160Z,5.22
2022-08-25T05:52:56.890Z,5.70
2022-08-25T05:55:23.813Z,6.70
2022-08-25T05:57:50.596Z,8.52
2022-08-25T06:00:17.535Z,7.57
2022-08-25T06:02:46.154Z,7.25
2022-08-25T06:05:23.028Z,8.43
2022-08-25T06:07:51.972Z,7.57
2022-08-25T06:10:20.154Z,6.93
2022-08-25T06:12:47.567Z,4.00
2022-08-25T06:15:25.646Z,4.25
2022-08-25T06:17:56.700Z,6.78
2022-08-25T06:20:28.506Z,9.88
2022-08-25T06:22:56.307Z,9.15
2022-08-25T06:25:25.079Z,7.35
2022-08-25T06:27:52.060Z,7.30
2022-08-25T06:30:24.609Z,9.75
2022-08-25T06:32:55.921Z,6.32
2022-08-25T06:35:23.056Z,8.73
2022-08-25T06:37:49.834Z,5.47
2022-08-25T06:40:16.873Z,7.18
2022-08-25T06:42:48.007Z,5.90
2022-08-25T06:45:14.686Z,5.80
2022-08-25T06:47:41.403Z,5.78
2022-08-25T06:50:08.603Z,8.52
2022-08-25T06:52:35.635Z,7.13
2022-08-25T06:55:03.515Z,6.28
2022-08-25T06:57:34.084Z,5.85
2022-08-25T07:00:00.751Z,6.63
2022-08-25T07:02:28.072Z,6.70
2022-08-25T07:04:55.988Z,6.63
2022-08-25T07:07:22.838Z,7.70
2022-08-25T07:09:49.576Z,7.20
2022-08-25T07:12:16.354Z,7.18
2022-08-25T07:14:58.193Z,7.93
2022-08-25T07:17:30.443Z,7.88
2022-08-25T07:19:57.592Z,7.85
2022-08-25T07:22:25.016Z,7.28
2022-08-25T07:24:51.731Z,6.95
2022-08-25T07:27:18.431Z,8.48
2022-08-25T07:29:45.127Z,8.65
2022-08-25T07:32:13.148Z,7.85
2022-08-25T07:34:58.265Z,8.05
2022-08-25T07:37:47.990Z,8.30
2022-08-25T07:40:16.003Z,8.02
2022-08-25T07:42:42.838Z,7.75
2022-08-25T07:45:11.195Z,7.60
2022-08-25T07:47:38.891Z,8.35
2022-08-25T07:50:12.396Z,7.32
2022-08-25T07:52:40.910Z,6.03
2022-08-25T07:55:11.059Z,6.28
2022-08-25T07:57:40.519Z,7.20
2022-08-25T08:00:11.378Z,7.55
2022-08-25T08:02:39.426Z,6.47
2022-08-25T08:05:09.645Z,6.68
2022-08-25T08:07:43.487Z,6.80
2022-08-25T08:13:01.043Z,7.43
2022-08-25T08:15:29.804Z,6.70
2022-08-25T08:17:57.218Z,7.25
2022-08-25T08:20:25.495Z,6.55
2022-08-25T08:22:52.616Z,6.70
2022-08-25T08:25:24.230Z,6.55
2022-08-25T08:28:04.837Z,7.20
2022-08-25T08:30:36.380Z,6.97
2022-08-25T08:33:12.425Z,6.43
2022-08-25T08:35:42.967Z,6.15
2022-08-25T08:38:16.119Z,6.07
2022-08-25T08:41:48.941Z,5.70
2022-08-25T08:44:58.072Z,5.80
2022-08-25T08:47:37.273Z,6.30
2022-08-25T08:50:32.360Z,5.43
2022-08-25T08:53:08.478Z,5.90
2022-08-25T08:55:52.715Z,6.53
2022-08-25T08:58:42.788Z,5.13
2022-08-25T09:01:15.983Z,5.35
2022-08-25T09:03:47.779Z,5.15
2022-08-25T09:06:32.883Z,5.07
2022-08-25T09:09:03.970Z,5.45
2022-08-25T09:11:48.880Z,4.90
2022-08-25T09:14:53.697Z,4.80
2022-08-25T09:17:41.932Z,5.53
2022-08-25T09:20:36.712Z,5.03
2022-08-25T09:23:27.928Z,5.18
2022-08-25T09:26:36.314Z,4.72
2022-08-25T09:29:06.074Z,5.07
2022-08-25T09:31:36.432Z,4.85
2022-08-25T09:34:06.296Z,5.22
2022-08-25T09:36:37.533Z,4.93
2022-08-25T09:39:05.876Z,4.80
2022-08-25T09:41:59.216Z,5.03
2022-08-25T09:44:44.403Z,4.68
2022-08-25T09:47:25.532Z,4.70
2022-08-25T09:50:04.519Z,4.32
2022-08-25T09:52:34.984Z,4.75
2022-08-25T09:55:13.699Z,4.00
2022-08-25T09:57:44.520Z,4.90
2022-08-25T10:00:33.699Z,4.53
2022-08-25T10:03:14.413Z,5.38
2022-08-25T10:06:05.153Z,5.38
2022-08-25T10:08:51.548Z,5.00
2022-08-25T10:11:43.926Z,4.30
2022-08-25T10:14:19.485Z,4.35
2022-08-25T10:16:48.866Z,4.15
2022-08-25T10:19:30.949Z,4.70
2022-08-25T10:22:20.196Z,3.97
2022-08-25T10:24:47.153Z,4.30
2022-08-25T10:27:34.750Z,4.18
2022-08-25T10:30:08.248Z,5.07
2022-08-25T10:32:53.827Z,4.13
2022-08-25T10:35:31.238Z,4.10
2022-08-25T10:38:36.094Z,4.15
2022-08-25T10:41:14.986Z,4.13
2022-08-25T10:43:52.214Z,4.32
2022-08-25T10:46:38.343Z,4.28
2022-08-25T10:49:19.210Z,3.72
2022-08-25T10:51:55.835Z,3.92
2022-08-25T10:54:30.272Z,4.70
2022-08-25T10:57:08.306Z,4.50
2022-08-25T10:59:50.545Z,4.35
2022-08-25T11:02:50.428Z,3.90
2022-08-25T11:05:24.499Z,4.40
2022-08-25T11:07:57.840Z,3.78
2022-08-25T11:10:37.731Z,4.50
2022-08-25T11:13:11.995Z,4.85
2022-08-25T11:16:16.445Z,4.18
2022-08-25T11:19:05.451Z,4.43
2022-08-25T11:21:42.993Z,5.40
2022-08-25T11:24:18.968Z,5.75
2022-08-25T11:26:55.728Z,4.32
2022-08-25T11:29:26.880Z,4.72
2022-08-25T11:31:54.321Z,4.63
2022-08-25T11:34:22.186Z,4.35
2022-08-25T11:37:11.194Z,4.70
2022-08-25T11:40:17.258Z,4.35
2022-08-25T11:43:04.166Z,4.28
2022-08-25T11:45:54.552Z,4.10
2022-08-25T11:48:27.355Z,3.97
2022-08-25T11:50:54.155Z,3.70
2022-08-25T11:53:42.431Z,4.57
2022-08-25T11:56:34.827Z,3.95
2022-08-25T11:59:02.992Z,4.25
2022-08-25T12:01:44.564Z,4.25
2022-08-25T12:04:33.762Z,4.32
2022-08-25T12:07:06.993Z,4.15
2022-08-25T12:09:54.943Z,4.80
2022-08-25T12:12:43.888Z,5.13
2022-08-25T12:15:33.316Z,4.43
2022-08-25T12:18:14.504Z,5.38
2022-08-25T12:20:56.643Z,4.97
2022-08-25T12:23:31.602Z,4.72
2022-08-25T12:26:29.103Z,5.47
2022-08-25T12:28:59.072Z,4.88
2022-08-25T12:31:54.879Z,4.93
2022-08-25T12:34:27.520Z,4.38
2022-08-25T12:37:02.931Z,4.10
2022-08-25T12:39:42.782Z,4.15
2022-08-25T12:42:36.160Z,4.05
2022-08-25T12:45:24.547Z,4.53
2022-08-25T12:47:53.675Z,3.72
2022-08-25T12:50:36.198Z,4.47
2022-08-25T12:53:08.941Z,4.20
2022-08-25T12:55:39.755Z,5.32
2022-08-25T12:58:07.013Z,4.53
2022-08-25T13:01:01.610Z,4.47
2022-08-25T13:03:52.906Z,4.28
2022-08-25T13:09:08.532Z,4.50
2022-08-25T13:11:56.686Z,4.82
2022-08-25T13:14:43.980Z,5.63
2022-08-25T13:17:11.752Z,5.15
2022-08-25T13:19:38.749Z,5.38
2022-08-25T13:22:17.688Z,4.80
2022-08-25T13:24:47.547Z,5.70
2022-08-25T13:27:26.569Z,4.53
2022-08-25T13:29:58.037Z,4.38
2022-08-25T13:32:35.110Z,4.80
2022-08-25T13:35:32.937Z,4.60
2022-08-25T13:38:16.849Z,3.83
2022-08-25T13:40:44.329Z,4.10
2022-08-25T13:43:13.806Z,4.50
2022-08-25T13:45:48.114Z,4.57
2022-08-25T13:48:34.173Z,4.38
2022-08-25T13:51:21.545Z,4.78
2022-08-25T13:53:51.110Z,4.20
2022-08-25T13:56:40.056Z,4.22
2022-08-25T13:59:25.675Z,4.45
2022-08-25T14:01:54.395Z,4.50
2022-08-25T14:04:32.400Z,4.45
2022-08-25T14:07:26.147Z,4.07
2022-08-25T14:09:58.289Z,4.57
2022-08-25T14:12:39.952Z,4.47
2022-08-25T14:15:17.378Z,4.10
2022-08-25T14:17:48.391Z,4.97
2022-08-25T14:20:20.271Z,4.25
2022-08-25T14:22:47.055Z,4.00
2022-08-25T14:25:14.658Z,4.70
2022-08-25T14:28:03.493Z,4.53
2022-08-25T14:30:33.412Z,4.35
2022-08-25T14:33:03.516Z,4.35
2022-08-25T14:35:30.447Z,4.70
2022-08-25T14:37:58.291Z,4.13
2022-08-25T14:40:25.122Z,5.30
2022-08-25T14:42:51.932Z,4.45
2022-08-25T14:45:19.129Z,4.40
2022-08-25T14:47:49.895Z,4.80
2022-08-25T14:50:20.952Z,4.97
2022-08-25T14:52:48.247Z,4.82
2022-08-25T14:55:30.831Z,4.78
2022-08-25T14:57:58.983Z,4.55
2022-08-25T15:00:26.023Z,5.43
2022-08-25T15:02:53.171Z,4.90
2022-08-25T15:05:29.130Z,4.47
2022-08-25T15:08:16.086Z,4.57
2022-08-25T15:10:43.350Z,5.30
2022-08-25T15:13:10.847Z,5.15
2022-08-25T15:15:52.718Z,4.78
2022-08-25T15:18:20.963Z,4.57
2022-08-25T15:20:50.066Z,4.65
2022-08-25T15:23:18.525Z,4.78
2022-08-25T15:25:47.473Z,5.60
2022-08-25T15:28:17.302Z,4.90
2022-08-25T15:30:45.920Z,5.00
2022-08-25T15:33:13.567Z,5.28
2022-08-25T15:35:41.378Z,5.22
2022-08-25T15:38:08.566Z,4.82
2022-08-25T15:40:37.603Z,5.10
2022-08-25T15:43:05.615Z,5.00
2022-08-25T15:45:35.859Z,5.50
2022-08-25T15:48:03.280Z,5.80
2022-08-25T15:50:30.080Z,5.43
2022-08-25T15:52:56.802Z,5.50
2022-08-25T15:55:23.672Z,5.55
2022-08-25T15:57:50.574Z,5.43
2022-08-25T16:00:18.393Z,5.22
2022-08-25T16:02:46.420Z,5.45
2022-08-25T16:05:13.701Z,5.30
2022-08-25T16:07:43.184Z,5.63
2022-08-25T16:10:12.626Z,5.47
2022-08-25T16:12:40.005Z,5.30
2022-08-25T16:15:12.107Z,4.95
2022-08-25T16:17:40.538Z,5.60
2022-08-25T16:20:08.229Z,4.88
2022-08-25T16:22:40.644Z,5.43
2022-08-25T16:25:08.003Z,4.68
2022-08-25T16:27:38.871Z,5.53
2022-08-25T16:32:33.607Z,5.13
2022-08-25T16:35:01.142Z,5.00
2022-08-25T16:37:28.033Z,5.03
2022-08-25T16:39:55.628Z,4.78
2022-08-25T16:42:22.431Z,4.70
2022-08-25T16:44:49.122Z,5.68
2022-08-25T16:47:20.720Z,5.07
2022-08-25T16:49:52.099Z,4.28
2022-08-25T16:52:38.144Z,4.85
2022-08-25T16:55:13.581Z,4.55
2022-08-25T16:57:43.435Z,4.57
2022-08-25T17:00:13.937Z,5.23
2022-08-25T17:02:41.810Z,5.70
2022-08-25T17:05:11.312Z,4.57
2022-08-25T17:07:38.271Z,4.60
2022-08-25T17:10:06.243Z,4.80
2022-08-25T17:12:33.229Z,4.38
2022-08-25T17:15:00.390Z,4.93
2022-08-25T17:17:27.176Z,5.35
2022-08-25T17:19:54.878Z,4.65
2022-08-25T17:22:22.646Z,4.45
2022-08-25T17:25:00.980Z,4.25
2022-08-25T17:27:28.182Z,4.43
2022-08-25T17:29:55.961Z,4.30
2022-08-25T17:32:28.957Z,4.85
2022-08-25T17:34:57.948Z,4.68
2022-08-25T17:37:25.177Z,4.90
2022-08-25T17:40:02.668Z,4.57
2022-08-25T17:42:31.269Z,4.32
2022-08-25T17:44:58.215Z,4.30
2022-08-25T17:47:25.002Z,4.57
2022-08-25T17:49:51.687Z,4.28
2022-08-25T17:52:21.497Z,4.43
2022-08-25T17:54:52.603Z,3.92
2022-08-25T17:57:20.915Z,5.00
2022-08-25T17:59:48.169Z,4.47
2022-08-25T18:02:15.066Z,4.22
2022-08-25T18:04:42.291Z,4.25
2022-08-25T18:07:10.238Z,4.15
2022-08-25T18:09:36.938Z,4.22
2022-08-25T18:12:04.318Z,4.57
2022-08-25T18:14:30.989Z,4.45
2022-08-25T18:16:57.704Z,4.35
2022-08-25T18:19:24.443Z,4.47
2022-08-25T18:21:51.846Z,4.28
2022-08-25T18:24:19.172Z,4.57
2022-08-25T18:26:46.137Z,4.20
2022-08-25T18:29:13.183Z,4.32
2022-08-25T18:31:42.194Z,4.30
2022-08-25T18:34:11.133Z,4.72
2022-08-25T18:36:39.085Z,5.03
2022-08-25T18:39:25.283Z,4.82
2022-08-25T18:41:52.074Z,4.55
2022-08-25T18:44:18.779Z,4.00
2022-08-25T18:46:46.190Z,4.78
2022-08-25T18:49:15.945Z,4.88
2022-08-25T18:51:44.619Z,4.97
2022-08-25T18:54:23.224Z,5.03
2022-08-25T18:56:54.284Z,5.00
2022-08-25T18:59:23.688Z,4.67
2022-08-25T19:01:52.493Z,4.40
2022-08-25T19:04:19.699Z,5.00
2022-08-25T19:06:46.690Z,4.63
2022-08-25T19:09:13.414Z,4.88
2022-08-25T19:11:43.242Z,4.47
2022-08-25T19:14:12.541Z,4.40
2022-08-25T19:16:41.632Z,4.80
2022-08-25T19:19:12.417Z,4.15
2022-08-25T19:21:40.812Z,4.78
2022-08-25T19:24:09.548Z,4.25
2022-08-25T19:26:36.945Z,5.03
2022-08-25T19:29:11.314Z,4.45
2022-08-25T19:31:39.681Z,4.55
2022-08-25T19:34:11.762Z,4.65
2022-08-25T19:36:38.667Z,4.93
2022-08-25T19:39:08.552Z,5.32
2022-08-25T19:41:35.474Z,5.05
2022-08-25T19:44:05.131Z,5.07
2022-08-25T19:46:36.461Z,4.55
2022-08-25T19:49:26.243Z,4.90
2022-08-25T19:51:56.767Z,5.25
2022-08-25T19:54:32.349Z,4.18
2022-08-25T19:56:59.631Z,4.47
2022-08-25T19:59:36.619Z,4.93
2022-08-25T20:02:15.227Z,4.53
2022-08-25T20:04:43.680Z,4.85
2022-08-25T20:07:21.154Z,4.60
2022-08-25T20:09:48.689Z,4.32
2022-08-25T20:12:16.676Z,5.30
2022-08-25T20:14:44.697Z,5.50
2022-08-25T20:17:23.942Z,5.22
2022-08-25T20:19:57.625Z,5.70
2022-08-25T20:22:31.448Z,5.63
2022-08-25T20:25:13.167Z,5.00
2022-08-25T20:27:44.238Z,4.60
2022-08-25T20:30:18.459Z,4.83
2022-08-25T20:32:45.880Z,4.65
2022-08-25T20:35:14.466Z,5.85
2022-08-25T20:37:43.840Z,6.25
2022-08-25T20:40:13.664Z,5.65
2022-08-25T20:42:40.780Z,6.47
2022-08-25T20:45:11.536Z,5.68
2022-08-25T20:47:38.693Z,4.85
2022-08-25T20:50:07.355Z,5.13
2022-08-25T20:52:34.649Z,5.50
2022-08-25T20:55:01.771Z,5.32
2022-08-25T20:57:28.684Z,5.70
2022-08-25T20:59:56.856Z,5.50
2022-08-25T21:02:24.422Z,5.60
2022-08-25T21:04:52.948Z,6.13
2022-08-25T21:07:21.002Z,6.30
2022-08-25T21:09:50.699Z,5.50
2022-08-25T21:12:18.666Z,5.97
2022-08-25T21:14:45.760Z,5.57
2022-08-25T21:17:14.411Z,6.10
2022-08-25T21:19:42.231Z,6.10
2022-08-25T21:22:10.900Z,5.95
2022-08-25T21:24:38.542Z,5.57
2022-08-25T21:27:05.652Z,5.78
2022-08-25T21:29:33.029Z,6.88
2022-08-25T21:32:00.258Z,5.95
2022-08-25T21:34:29.100Z,5.28
2022-08-25T21:36:57.747Z,5.97
2022-08-25T21:39:29.659Z,5.05
2022-08-25T21:42:00.108Z,6.22
2022-08-25T21:44:27.509Z,6.05
2022-08-25T21:46:54.893Z,4.60
2022-08-25T21:49:23.543Z,6.05
2022-08-25T21:52:00.297Z,6.90
2022-08-25T21:54:28.754Z,6.28
2022-08-25T21:56:59.700Z,5.40
2022-08-25T21:59:30.229Z,5.65
2022-08-25T22:01:59.424Z,5.25
2022-08-25T22:04:27.876Z,5.95
2022-08-25T22:06:55.725Z,5.50
2022-08-25T22:09:24.944Z,5.70
2022-08-25T22:11:53.186Z,6.00
2022-08-25T22:14:23.398Z,6.63
2022-08-25T22:16:51.764Z,6.65
2022-08-25T22:19:18.732Z,7.35
2022-08-25T22:21:46.026Z,7.40
2022-08-25T22:24:12.730Z,6.65
2022-08-25T22:26:40.387Z,7.03
2022-08-25T22:29:07.662Z,5.95
2022-08-25T22:31:35.004Z,5.45
2022-08-25T22:34:03.737Z,5.97
2022-08-25T22:36:33.818Z,6.55
2022-08-25T22:39:03.375Z,6.53
2022-08-25T22:41:31.461Z,6.80
2022-08-25T22:44:00.157Z,6.90
2022-08-25T22:46:32.295Z,5.63
2022-08-25T22:48:59.935Z,5.68
2022-08-25T22:51:30.356Z,5.50
2022-08-25T22:53:59.579Z,6.20
2022-08-25T22:56:32.569Z,5.78
2022-08-25T22:59:03.089Z,6.07
2022-08-25T23:01:31.806Z,5.18
2022-08-25T23:04:01.717Z,4.57
2022-08-25T23:06:28.992Z,6.22
2022-08-25T23:08:56.285Z,5.60
2022-08-25T23:11:24.396Z,4.82
2022-08-25T23:13:54.778Z,5.95
2022-08-25T23:16:22.343Z,5.90
2022-08-25T23:18:49.511Z,4.90
2022-08-25T23:21:38.096Z,6.20
2022-08-25T23:24:08.771Z,5.03
2022-08-25T23:26:41.998Z,6.38
2022-08-25T23:29:18.275Z,7.07
2022-08-25T23:31:47.170Z,6.80
2022-08-25T23:34:15.607Z,7.50
2022-08-25T23:36:43.801Z,8.57
2022-08-25T23:39:11.143Z,7.75
2022-08-25T23:41:37.943Z,8.13
2022-08-25T23:44:05.549Z,7.53
2022-08-25T23:46:34.878Z,7.72
2022-08-25T23:49:03.305Z,6.88
2022-08-25T23:51:37.119Z,6.07
2022-08-25T23:54:09.501Z,8.07
2022-08-25T23:56:42.486Z,7.53
2022-08-25T23:59:12.931Z,6.25
